createdAt,value
2019-01-19T00:00:11.814Z,0.00
2019-01-19T00:01:11.722Z,0.00
2019-01-19T00:02:11.682Z,0.00
2019-01-19T00:03:11.642Z,0.00
2019-01-19T00:04:11.602Z,0.00
2019-01-19T00:05:11.568Z,0.00
2019-01-19T00:06:11.527Z,0.00
2019-01-19T00:07:11.482Z,0.00
2019-01-19T00:08:11.448Z,0.00
2019-01-19T00:09:11.407Z,0.00
2019-01-19T00:10:11.365Z,0.00
2019-01-19T00:11:11.330Z,0.00
2019-01-19T00:12:11.288Z,0.00
2019-01-19T00:13:11.247Z,0.00
2019-01-19T00:14:11.213Z,0.00
2019-01-19T00:15:11.159Z,0.00
2019-01-19T00:16:11.124Z,0.00
2019-01-19T00:17:11.094Z,0.00
2019-01-19T00:18:11.036Z,0.00
2019-01-19T00:19:11.014Z,0.00
2019-01-19T00:20:10.970Z,0.00
2019-01-19T00:21:10.920Z,0.00
2019-01-19T00:22:10.885Z,0.00
2019-01-19T00:23:10.847Z,0.00
2019-01-19T00:24:10.813Z,0.00
2019-01-19T00:25:10.768Z,0.00
2019-01-19T00:26:10.724Z,0.00
2019-01-19T00:27:10.698Z,0.00
2019-01-19T00:28:10.647Z,0.00
2019-01-19T00:29:10.608Z,0.00
2019-01-19T00:30:10.569Z,0.00
2019-01-19T00:31:10.530Z,0.00
2019-01-19T00:32:10.487Z,0.00
2019-01-19T00:33:10.461Z,0.00
2019-01-19T00:34:10.418Z,0.00
2019-01-19T00:35:17.599Z,0.00
2019-01-19T00:36:10.339Z,0.00
2019-01-19T00:37:10.298Z,0.00
2019-01-19T00:38:10.249Z,0.00
2019-01-19T00:39:10.218Z,0.00
2019-01-19T00:40:10.175Z,0.00
2019-01-19T00:41:10.141Z,0.00
2019-01-19T00:42:10.099Z,0.00
2019-01-19T00:43:10.055Z,0.00
2019-01-19T00:44:10.014Z,0.00
2019-01-19T00:45:09.980Z,0.00
2019-01-19T00:46:09.939Z,0.00
2019-01-19T00:47:09.899Z,0.00
2019-01-19T00:48:09.864Z,0.00
2019-01-19T00:49:09.812Z,0.00
2019-01-19T00:50:09.774Z,0.00
2019-01-19T00:51:09.739Z,0.00
2019-01-19T00:52:09.730Z,0.00
2019-01-19T00:53:09.655Z,0.00
2019-01-19T00:54:09.627Z,0.00
2019-01-19T00:55:09.605Z,0.00
2019-01-19T00:56:09.541Z,0.00
2019-01-19T00:57:09.506Z,0.00
2019-01-19T00:58:09.470Z,0.00
2019-01-19T00:59:09.422Z,0.00
2019-01-19T01:00:09.377Z,0.00
2019-01-19T01:01:09.339Z,0.00
2019-01-19T01:02:09.304Z,0.00
2019-01-19T01:03:09.260Z,0.00
2019-01-19T01:04:09.215Z,0.00
2019-01-19T01:05:09.180Z,0.00
2019-01-19T01:06:09.143Z,0.00
2019-01-19T01:07:09.115Z,0.00
2019-01-19T01:08:09.060Z,0.00
2019-01-19T01:09:09.020Z,0.00
2019-01-19T01:10:08.987Z,0.00
2019-01-19T01:11:08.940Z,0.00
2019-01-19T01:12:08.906Z,0.00
2019-01-19T01:13:08.868Z,0.00
2019-01-19T01:14:08.823Z,0.00
2019-01-19T01:15:08.796Z,0.00
2019-01-19T01:16:08.787Z,0.00
2019-01-19T01:17:08.711Z,0.00
2019-01-19T01:18:08.666Z,0.00
2019-01-19T01:19:08.622Z,0.00
2019-01-19T01:20:08.586Z,0.00
2019-01-19T01:21:08.546Z,0.00
2019-01-19T01:22:08.503Z,0.00
2019-01-19T01:23:08.471Z,0.00
2019-01-19T01:24:08.423Z,0.00
2019-01-19T01:25:08.391Z,0.00
2019-01-19T01:26:08.343Z,0.00
2019-01-19T01:27:08.317Z,0.00
2019-01-19T01:28:08.272Z,0.00
2019-01-19T01:29:08.223Z,0.00
2019-01-19T01:30:08.188Z,0.00
2019-01-19T01:31:08.159Z,0.00
2019-01-19T01:32:08.108Z,0.00
2019-01-19T01:33:08.078Z,0.00
2019-01-19T01:34:08.040Z,0.00
2019-01-19T01:35:07.994Z,0.00
2019-01-19T01:36:07.949Z,0.00
2019-01-19T01:37:07.907Z,0.00
2019-01-19T01:38:07.876Z,0.00
2019-01-19T01:39:07.836Z,0.00
2019-01-19T01:40:07.789Z,0.00
2019-01-19T01:41:07.751Z,0.00
2019-01-19T01:42:07.712Z,0.00
2019-01-19T01:43:07.664Z,0.00
2019-01-19T01:44:07.632Z,0.00
2019-01-19T01:45:07.597Z,0.00
2019-01-19T01:46:07.552Z,0.00
2019-01-19T01:47:07.512Z,0.00
2019-01-19T01:48:07.479Z,0.00
2019-01-19T01:49:07.442Z,0.00
2019-01-19T01:50:07.392Z,0.00
2019-01-19T01:51:07.369Z,0.00
2019-01-19T01:52:07.313Z,0.00
2019-01-19T01:53:07.274Z,0.00
2019-01-19T01:54:07.234Z,0.00
2019-01-19T01:55:07.185Z,0.00
2019-01-19T01:56:07.150Z,0.00
2019-01-19T01:57:07.124Z,0.00
2019-01-19T01:58:07.077Z,0.00
2019-01-19T01:59:07.032Z,0.00
2019-01-19T02:00:06.993Z,0.00
2019-01-19T02:01:06.959Z,0.00
2019-01-19T02:02:06.910Z,0.00
2019-01-19T02:03:06.873Z,0.00
2019-01-19T02:04:06.839Z,0.00
2019-01-19T02:05:06.799Z,0.00
2019-01-19T02:06:06.753Z,0.00
2019-01-19T02:07:06.710Z,0.00
2019-01-19T02:08:06.678Z,0.00
2019-01-19T02:09:06.635Z,0.00
2019-01-19T02:10:06.599Z,0.00
2019-01-19T02:11:06.555Z,0.00
2019-01-19T02:12:06.510Z,0.00
2019-01-19T02:13:06.475Z,0.00
2019-01-19T02:14:06.434Z,0.00
2019-01-19T02:15:06.393Z,0.00
2019-01-19T02:16:06.358Z,0.00
2019-01-19T02:17:06.320Z,0.00
2019-01-19T02:18:06.281Z,0.00
2019-01-19T02:19:06.234Z,0.00
2019-01-19T02:20:06.199Z,0.00
2019-01-19T02:21:06.153Z,0.00
2019-01-19T02:22:06.126Z,0.00
2019-01-19T02:23:06.074Z,0.00
2019-01-19T02:24:06.034Z,0.00
2019-01-19T02:25:05.995Z,0.00
2019-01-19T02:26:05.970Z,0.00
2019-01-19T02:27:05.920Z,0.00
2019-01-19T02:28:05.870Z,0.00
2019-01-19T02:29:05.844Z,0.00
2019-01-19T02:30:05.797Z,0.00
2019-01-19T02:31:05.757Z,0.00
2019-01-19T02:32:05.720Z,0.00
2019-01-19T02:33:05.675Z,0.00
2019-01-19T02:34:05.644Z,0.00
2019-01-19T02:35:05.596Z,0.00
2019-01-19T02:36:05.600Z,0.00
2019-01-19T02:37:05.539Z,0.00
2019-01-19T02:38:05.482Z,0.00
2019-01-19T02:39:05.446Z,0.00
2019-01-19T02:40:05.399Z,0.00
2019-01-19T02:41:05.367Z,0.00
2019-01-19T02:42:05.316Z,0.00
2019-01-19T02:43:05.280Z,0.00
2019-01-19T02:44:05.240Z,0.00
2019-01-19T02:45:05.208Z,0.00
2019-01-19T02:46:05.162Z,0.00
2019-01-19T02:47:05.118Z,0.00
2019-01-19T02:48:05.077Z,0.00
2019-01-19T02:49:05.037Z,0.00
2019-01-19T02:50:05.016Z,0.00
2019-01-19T02:51:04.956Z,0.00
2019-01-19T02:52:04.911Z,0.00
2019-01-19T02:53:04.879Z,0.00
2019-01-19T02:54:04.840Z,0.00
2019-01-19T02:55:06.187Z,0.00
2019-01-19T02:56:04.753Z,0.00
2019-01-19T02:57:04.717Z,0.00
2019-01-19T02:58:04.678Z,0.00
2019-01-19T02:59:04.651Z,0.00
2019-01-19T03:00:04.597Z,0.00
2019-01-19T03:01:04.570Z,0.00
2019-01-19T03:02:04.523Z,0.00
2019-01-19T03:03:04.473Z,0.00
2019-01-19T03:04:04.440Z,0.00
2019-01-19T03:05:04.398Z,0.00
2019-01-19T03:06:04.364Z,0.00
2019-01-19T03:07:04.313Z,0.00
2019-01-19T03:08:04.276Z,0.00
2019-01-19T03:09:04.238Z,0.00
2019-01-19T03:11:36.281Z,0.00
2019-01-19T03:12:36.217Z,0.00
2019-01-19T03:13:36.175Z,0.00
2019-01-19T03:14:36.137Z,0.00
2019-01-19T03:15:36.098Z,0.00
2019-01-19T03:16:36.065Z,0.00
2019-01-19T03:17:36.021Z,0.00
2019-01-19T03:18:35.972Z,0.00
2019-01-19T03:19:35.933Z,0.00
2019-01-19T03:20:35.895Z,0.00
2019-01-19T03:21:35.852Z,0.00
2019-01-19T03:22:35.812Z,0.00
2019-01-19T03:23:35.773Z,0.00
2019-01-19T03:24:35.737Z,0.00
2019-01-19T03:25:35.689Z,0.00
2019-01-19T03:26:35.659Z,0.00
2019-01-19T03:27:35.609Z,0.00
2019-01-19T03:28:35.573Z,0.00
2019-01-19T03:29:35.535Z,0.00
2019-01-19T03:30:35.509Z,0.00
2019-01-19T03:31:35.463Z,0.00
2019-01-19T03:32:35.419Z,0.00
2019-01-19T03:33:35.382Z,0.00
2019-01-19T03:34:35.337Z,0.00
2019-01-19T03:35:35.293Z,0.00
2019-01-19T03:36:35.249Z,0.00
2019-01-19T03:37:35.214Z,0.00
2019-01-19T03:38:35.172Z,0.00
2019-01-19T03:39:35.125Z,0.00
2019-01-19T03:40:35.092Z,0.00
2019-01-19T03:41:35.053Z,0.00
2019-01-19T03:42:35.015Z,0.00
2019-01-19T03:43:34.963Z,0.00
2019-01-19T03:44:34.991Z,0.00
2019-01-19T03:45:34.891Z,0.00
2019-01-19T03:46:34.843Z,0.00
2019-01-19T03:47:34.799Z,0.00
2019-01-19T03:48:34.766Z,0.00
2019-01-19T03:49:34.733Z,0.00
2019-01-19T03:50:34.692Z,0.00
2019-01-19T03:51:34.650Z,0.00
2019-01-19T03:52:34.608Z,0.00
2019-01-19T03:53:34.566Z,0.00
2019-01-19T03:54:34.519Z,0.00
2019-01-19T03:55:34.479Z,0.00
2019-01-19T03:56:34.440Z,0.00
2019-01-19T03:57:34.404Z,0.00
2019-01-19T03:58:34.365Z,0.00
2019-01-19T03:59:34.325Z,0.00
2019-01-19T04:00:34.350Z,0.00
2019-01-19T04:01:34.244Z,0.00
2019-01-19T04:02:34.205Z,0.00
2019-01-19T04:03:34.159Z,0.00
2019-01-19T04:04:34.111Z,0.00
2019-01-19T04:05:34.086Z,0.00
2019-01-19T04:06:34.046Z,0.00
2019-01-19T04:07:33.997Z,0.00
2019-01-19T04:08:33.961Z,0.00
2019-01-19T04:09:33.919Z,0.00
2019-01-19T04:10:33.882Z,0.00
2019-01-19T04:11:33.832Z,0.00
2019-01-19T04:12:33.791Z,0.00
2019-01-19T04:13:33.761Z,0.00
2019-01-19T04:14:33.714Z,0.00
2019-01-19T04:15:33.680Z,0.00
2019-01-19T04:16:33.640Z,0.00
2019-01-19T04:17:33.596Z,0.00
2019-01-19T04:18:33.550Z,0.00
2019-01-19T04:19:33.517Z,0.00
2019-01-19T04:20:33.469Z,0.00
2019-01-19T04:21:33.432Z,0.00
2019-01-19T04:22:33.398Z,0.00
2019-01-19T04:23:33.352Z,0.00
2019-01-19T04:24:33.319Z,0.00
2019-01-19T04:25:33.281Z,0.00
2019-01-19T04:26:33.232Z,0.00
2019-01-19T04:27:33.192Z,0.00
2019-01-19T04:28:33.157Z,0.00
2019-01-19T04:29:33.105Z,0.00
2019-01-19T04:30:33.075Z,0.00
2019-01-19T04:31:33.031Z,0.00
2019-01-19T04:32:32.997Z,0.00
2019-01-19T04:33:32.958Z,0.00
2019-01-19T04:34:32.915Z,0.00
2019-01-19T04:35:32.868Z,0.00
2019-01-19T04:36:32.827Z,0.00
2019-01-19T04:37:32.790Z,0.00
2019-01-19T04:38:33.679Z,0.00
2019-01-19T04:39:32.706Z,0.00
2019-01-19T04:40:32.667Z,0.00
2019-01-19T04:41:32.636Z,0.00
2019-01-19T04:42:32.586Z,0.00
2019-01-19T04:43:32.542Z,0.00
2019-01-19T04:44:32.512Z,0.00
2019-01-19T04:45:32.467Z,0.00
2019-01-19T04:46:32.427Z,0.00
2019-01-19T04:47:32.392Z,0.00
2019-01-19T04:48:32.348Z,0.00
2019-01-19T04:49:32.303Z,0.00
2019-01-19T04:50:32.275Z,0.00
2019-01-19T04:51:32.217Z,0.00
2019-01-19T04:52:32.184Z,0.00
2019-01-19T04:53:32.147Z,0.00
2019-01-19T04:54:32.109Z,0.00
2019-01-19T04:55:32.063Z,0.00
2019-01-19T04:56:32.022Z,0.00
2019-01-19T04:57:31.992Z,0.00
2019-01-19T04:58:31.942Z,0.00
2019-01-19T04:59:31.903Z,0.00
2019-01-19T05:00:31.863Z,0.00
2019-01-19T05:01:31.826Z,0.00
2019-01-19T05:02:31.791Z,0.00
2019-01-19T05:03:31.734Z,0.00
2019-01-19T05:04:31.697Z,0.00
2019-01-19T05:05:31.652Z,0.00
2019-01-19T05:06:31.623Z,0.00
2019-01-19T05:07:31.582Z,0.00
2019-01-19T05:08:31.537Z,0.00
2019-01-19T05:09:31.498Z,0.00
2019-01-19T05:10:31.457Z,0.00
2019-01-19T05:11:31.417Z,0.00
2019-01-19T05:12:31.379Z,0.00
2019-01-19T05:13:31.342Z,0.00
2019-01-19T05:14:31.299Z,0.00
2019-01-19T05:15:31.264Z,0.00
2019-01-19T05:16:31.207Z,0.00
2019-01-19T05:17:31.163Z,0.00
2019-01-19T05:18:31.134Z,0.00
2019-01-19T05:19:31.084Z,0.00
2019-01-19T05:20:31.045Z,0.00
2019-01-19T05:21:31.019Z,0.00
2019-01-19T05:22:30.974Z,0.00
2019-01-19T05:23:30.933Z,0.00
2019-01-19T05:24:30.897Z,0.00
2019-01-19T05:25:30.853Z,0.00
2019-01-19T05:26:30.809Z,0.00
2019-01-19T05:27:30.781Z,0.00
2019-01-19T05:28:30.729Z,0.00
2019-01-19T05:29:30.688Z,0.00
2019-01-19T05:30:30.654Z,0.00
2019-01-19T05:31:30.614Z,0.00
2019-01-19T05:32:30.570Z,0.00
2019-01-19T05:33:30.529Z,0.00
2019-01-19T05:34:30.488Z,0.00
2019-01-19T05:35:30.472Z,0.00
2019-01-19T05:36:38.013Z,0.00
2019-01-19T05:37:30.361Z,0.00
2019-01-19T05:38:30.324Z,0.00
2019-01-19T05:39:30.279Z,0.00
2019-01-19T05:40:30.238Z,0.00
2019-01-19T05:41:30.208Z,0.00
2019-01-19T05:42:30.168Z,0.00
2019-01-19T05:43:30.119Z,0.00
2019-01-19T05:44:30.086Z,0.00
2019-01-19T05:45:30.040Z,0.00
2019-01-19T05:46:29.999Z,0.00
2019-01-19T05:47:29.967Z,0.00
2019-01-19T05:48:29.920Z,0.00
2019-01-19T05:49:29.890Z,0.00
2019-01-19T05:50:29.835Z,0.00
2019-01-19T05:51:29.800Z,0.00
2019-01-19T05:52:29.755Z,0.00
2019-01-19T05:53:29.720Z,0.00
2019-01-19T05:54:29.677Z,0.00
2019-01-19T05:55:29.644Z,0.00
2019-01-19T05:56:29.596Z,0.00
2019-01-19T05:57:29.560Z,0.00
2019-01-19T05:58:29.515Z,0.00
2019-01-19T05:59:29.472Z,0.00
2019-01-19T06:00:29.431Z,0.00
2019-01-19T06:01:29.398Z,0.00
2019-01-19T06:02:29.357Z,0.00
2019-01-19T06:03:29.306Z,0.00
2019-01-19T06:04:29.266Z,0.00
2019-01-19T06:05:29.242Z,0.00
2019-01-19T06:06:29.199Z,0.00
2019-01-19T06:07:29.156Z,0.00
2019-01-19T06:08:29.111Z,0.00
2019-01-19T06:09:29.072Z,0.00
2019-01-19T06:10:29.042Z,0.00
2019-01-19T06:11:29.005Z,0.00
2019-01-19T06:12:28.951Z,0.00
2019-01-19T06:13:28.912Z,0.00
2019-01-19T06:14:28.861Z,0.00
2019-01-19T06:15:28.875Z,0.00
2019-01-19T06:16:28.781Z,0.00
2019-01-19T06:17:28.752Z,0.00
2019-01-19T06:18:28.702Z,0.00
2019-01-19T06:19:28.662Z,0.00
2019-01-19T06:20:28.628Z,0.00
2019-01-19T06:21:28.575Z,0.00
2019-01-19T06:22:28.546Z,0.00
2019-01-19T06:23:28.496Z,0.00
2019-01-19T06:24:28.466Z,0.00
2019-01-19T06:25:28.427Z,0.00
2019-01-19T06:26:28.386Z,0.00
2019-01-19T06:27:28.346Z,0.00
2019-01-19T06:28:28.307Z,0.00
2019-01-19T06:29:28.250Z,0.00
2019-01-19T06:30:28.216Z,0.00
2019-01-19T06:31:28.182Z,0.00
2019-01-19T06:32:28.145Z,0.00
2019-01-19T06:33:28.098Z,0.00
2019-01-19T06:34:28.058Z,0.00
2019-01-19T06:35:28.007Z,0.00
2019-01-19T06:36:27.982Z,0.00
2019-01-19T06:37:27.941Z,0.00
2019-01-19T06:38:27.888Z,0.00
2019-01-19T06:39:27.855Z,0.00
2019-01-19T06:40:27.811Z,0.00
2019-01-19T06:41:27.777Z,0.00
2019-01-19T06:42:27.729Z,0.00
2019-01-19T06:43:27.689Z,0.00
2019-01-19T06:44:27.651Z,0.00
2019-01-19T06:45:27.611Z,0.00
2019-01-19T06:46:27.577Z,0.00
2019-01-19T06:47:27.528Z,0.00
2019-01-19T06:48:27.493Z,0.00
2019-01-19T06:49:27.449Z,0.00
2019-01-19T06:50:27.402Z,0.00
2019-01-19T06:51:27.369Z,0.00
2019-01-19T06:52:27.325Z,0.00
2019-01-19T06:53:27.288Z,0.00
2019-01-19T06:54:27.243Z,0.00
2019-01-19T06:55:27.200Z,0.00
2019-01-19T06:56:27.169Z,0.00
2019-01-19T06:57:27.126Z,0.00
2019-01-19T06:58:27.089Z,0.00
2019-01-19T06:59:27.072Z,0.00
2019-01-19T07:00:27.002Z,0.00
2019-01-19T07:01:27.005Z,0.00
2019-01-19T07:02:26.923Z,0.00
2019-01-19T07:03:26.873Z,0.00
2019-01-19T07:04:26.845Z,0.00
2019-01-19T07:05:26.799Z,0.00
2019-01-19T07:06:26.762Z,0.00
2019-01-19T07:07:26.733Z,0.00
2019-01-19T07:08:26.688Z,0.00
2019-01-19T07:09:26.634Z,0.00
2019-01-19T07:10:26.589Z,0.00
2019-01-19T07:11:26.558Z,0.00
2019-01-19T07:12:26.514Z,0.00
2019-01-19T07:13:26.479Z,0.00
2019-01-19T07:14:26.428Z,0.00
2019-01-19T07:15:26.399Z,0.00
2019-01-19T07:16:26.343Z,0.00
2019-01-19T07:17:26.313Z,0.00
2019-01-19T07:18:26.267Z,0.00
2019-01-19T07:19:26.223Z,0.00
2019-01-19T07:20:26.179Z,0.00
2019-01-19T07:21:26.164Z,0.00
2019-01-19T07:22:26.111Z,0.00
2019-01-19T07:23:26.074Z,0.00
2019-01-19T07:24:26.026Z,0.00
2019-01-19T07:25:25.991Z,0.00
2019-01-19T07:26:25.944Z,0.00
2019-01-19T07:27:25.909Z,0.00
2019-01-19T07:28:25.865Z,0.00
2019-01-19T07:29:25.886Z,0.00
2019-01-19T07:30:25.775Z,0.00
2019-01-19T07:31:25.746Z,0.00
2019-01-19T07:32:25.698Z,0.00
2019-01-19T07:33:25.659Z,0.00
2019-01-19T07:34:25.625Z,0.00
2019-01-19T07:35:25.574Z,0.00
2019-01-19T07:36:25.544Z,0.00
2019-01-19T07:37:25.499Z,0.00
2019-01-19T07:38:25.465Z,0.00
2019-01-19T07:39:25.450Z,0.00
2019-01-19T07:40:25.379Z,5.63
2019-01-19T07:41:25.331Z,5.63
2019-01-19T07:42:25.296Z,5.63
2019-01-19T07:43:25.259Z,5.63
2019-01-19T07:44:25.207Z,5.63
2019-01-19T07:45:25.169Z,5.63
2019-01-19T07:46:25.136Z,5.63
2019-01-19T07:47:25.095Z,5.63
2019-01-19T07:48:25.051Z,5.63
2019-01-19T07:49:25.015Z,5.63
2019-01-19T07:50:24.968Z,5.63
2019-01-19T07:51:25.747Z,5.63
2019-01-19T07:52:24.897Z,5.63
2019-01-19T07:53:24.849Z,5.63
2019-01-19T07:54:24.807Z,5.63
2019-01-19T07:55:24.765Z,11.25
2019-01-19T07:56:24.911Z,11.25
2019-01-19T07:57:31.039Z,11.25
2019-01-19T07:58:24.645Z,11.25
2019-01-19T07:59:24.606Z,11.25
2019-01-19T08:00:24.562Z,11.25
2019-01-19T08:01:24.524Z,11.25
2019-01-19T08:02:24.476Z,11.25
2019-01-19T08:03:24.446Z,11.25
2019-01-19T08:04:24.406Z,16.88
2019-01-19T08:05:24.355Z,16.88
2019-01-19T08:06:24.325Z,16.88
2019-01-19T08:07:24.280Z,16.88
2019-01-19T08:08:24.247Z,16.88
2019-01-19T08:09:24.192Z,16.88
2019-01-19T08:10:24.160Z,16.88
2019-01-19T08:11:24.116Z,16.88
2019-01-19T08:12:24.077Z,16.88
2019-01-19T08:13:24.036Z,16.88
2019-01-19T08:14:24.003Z,16.88
2019-01-19T08:15:23.957Z,22.50
2019-01-19T08:16:23.920Z,22.50
2019-01-19T08:17:23.878Z,22.50
2019-01-19T08:18:23.828Z,22.50
2019-01-19T08:19:23.787Z,22.50
2019-01-19T08:20:23.743Z,22.50
2019-01-19T08:21:23.713Z,22.50
2019-01-19T08:22:23.706Z,22.50
2019-01-19T08:23:23.637Z,22.50
2019-01-19T08:24:23.594Z,22.50
2019-01-19T08:25:23.548Z,22.50
2019-01-19T08:26:23.507Z,28.13
2019-01-19T08:27:23.472Z,28.13
2019-01-19T08:28:23.427Z,28.13
2019-01-19T08:29:23.387Z,28.13
2019-01-19T08:30:23.351Z,28.13
2019-01-19T08:31:23.308Z,28.13
2019-01-19T08:32:23.267Z,28.13
2019-01-19T08:33:23.228Z,28.13
2019-01-19T08:34:23.196Z,28.13
2019-01-19T08:35:23.159Z,28.13
2019-01-19T08:36:23.119Z,28.13
2019-01-19T08:37:24.559Z,28.13
2019-01-19T08:38:23.039Z,28.13
2019-01-19T08:39:22.990Z,28.13
2019-01-19T08:40:22.949Z,28.13
2019-01-19T08:41:22.909Z,33.75
2019-01-19T08:42:22.860Z,33.75
2019-01-19T08:43:22.827Z,33.75
2019-01-19T08:44:22.784Z,33.75
2019-01-19T08:45:22.743Z,33.75
2019-01-19T08:46:22.699Z,33.75
2019-01-19T08:47:22.678Z,33.75
2019-01-19T08:48:22.636Z,33.75
2019-01-19T08:49:22.577Z,33.75
2019-01-19T08:50:22.549Z,33.75
2019-01-19T08:51:22.505Z,33.75
2019-01-19T08:52:22.465Z,33.75
2019-01-19T08:53:22.423Z,33.75
2019-01-19T08:54:22.387Z,33.75
2019-01-19T08:55:22.339Z,33.75
2019-01-19T08:56:22.307Z,33.75
2019-01-19T08:57:22.265Z,33.75
2019-01-19T08:58:22.220Z,39.38
2019-01-19T08:59:22.178Z,39.38
2019-01-19T09:00:22.149Z,39.38
2019-01-19T09:01:22.103Z,39.38
2019-01-19T09:02:22.064Z,39.38
2019-01-19T09:03:22.025Z,39.38
2019-01-19T09:04:21.983Z,39.38
2019-01-19T09:05:21.940Z,39.38
2019-01-19T09:06:21.899Z,39.38
2019-01-19T09:07:21.863Z,39.38
2019-01-19T09:08:21.820Z,39.38
2019-01-19T09:09:21.783Z,39.38
2019-01-19T09:10:21.750Z,39.38
2019-01-19T09:11:21.715Z,39.38
2019-01-19T09:12:21.662Z,39.38
2019-01-19T09:13:21.624Z,39.38
2019-01-19T09:14:21.588Z,39.38
2019-01-19T09:15:21.575Z,39.38
2019-01-19T09:16:21.502Z,39.38
2019-01-19T09:17:21.460Z,45.00
2019-01-19T09:18:21.415Z,45.00
2019-01-19T09:19:21.404Z,45.00
2019-01-19T09:20:21.357Z,45.00
2019-01-19T09:21:21.307Z,45.00
2019-01-19T09:22:21.271Z,45.00
2019-01-19T09:23:21.235Z,45.00
2019-01-19T09:24:21.187Z,45.00
2019-01-19T09:25:21.150Z,45.00
2019-01-19T09:26:21.111Z,45.00
2019-01-19T09:27:21.067Z,45.00
2019-01-19T09:28:21.030Z,45.00
2019-01-19T09:29:20.996Z,45.00
2019-01-19T09:30:20.947Z,45.00
2019-01-19T09:31:20.911Z,45.00
2019-01-19T09:32:20.866Z,45.00
2019-01-19T09:33:20.827Z,50.63
2019-01-19T09:34:20.790Z,50.63
2019-01-19T09:35:20.773Z,50.63
2019-01-19T09:36:20.714Z,50.63
2019-01-19T09:37:20.681Z,50.63
2019-01-19T09:38:20.629Z,50.63
2019-01-19T09:39:20.591Z,50.63
2019-01-19T09:40:20.559Z,50.63
2019-01-19T09:41:20.507Z,50.63
2019-01-19T09:42:20.475Z,50.63
2019-01-19T09:43:20.436Z,50.63
2019-01-19T09:44:20.396Z,50.63
2019-01-19T09:45:20.353Z,56.25
2019-01-19T09:46:20.342Z,56.25
2019-01-19T09:47:20.273Z,56.25
2019-01-19T09:48:20.231Z,56.25
2019-01-19T09:49:20.195Z,56.25
2019-01-19T09:50:20.162Z,56.25
2019-01-19T09:51:28.788Z,61.88
2019-01-19T09:53:24.552Z,1276.88
2019-01-19T09:54:25.008Z,1355.63
2019-01-19T09:55:24.408Z,1378.13
2019-01-19T09:56:24.370Z,1305.00
2019-01-19T09:57:24.333Z,1434.38
2019-01-19T09:58:24.305Z,1569.38
2019-01-19T09:59:24.252Z,1456.88
2019-01-19T10:00:24.220Z,1389.38
2019-01-19T10:01:24.187Z,1243.13
2019-01-19T10:02:24.143Z,1310.63
2019-01-19T10:03:24.107Z,1445.63
2019-01-19T10:04:24.076Z,1440.00
2019-01-19T10:05:24.046Z,1350.00
2019-01-19T10:06:24.019Z,1305.00
2019-01-19T10:07:23.977Z,1282.50
2019-01-19T10:08:23.948Z,1327.50
2019-01-19T10:09:23.911Z,1406.25
2019-01-19T10:10:23.912Z,1406.25
2019-01-19T10:11:23.855Z,1406.25
2019-01-19T10:12:23.823Z,1395.00
2019-01-19T10:13:23.797Z,1378.13
2019-01-19T10:14:23.749Z,1378.13
2019-01-19T10:15:23.714Z,1366.88
2019-01-19T10:16:23.710Z,1344.38
2019-01-19T10:17:23.702Z,1333.13
2019-01-19T10:18:23.630Z,1333.13
2019-01-19T10:19:23.604Z,1327.50
2019-01-19T10:20:23.563Z,1321.88
2019-01-19T10:21:23.545Z,1299.38
2019-01-19T10:22:23.509Z,1293.75
2019-01-19T10:23:23.488Z,1209.38
2019-01-19T10:24:23.469Z,1158.75
2019-01-19T10:25:23.423Z,1108.13
2019-01-19T10:26:23.401Z,1108.13
2019-01-19T10:27:23.367Z,1198.13
2019-01-19T10:28:23.335Z,1125.00
2019-01-19T10:29:23.330Z,1153.13
2019-01-19T10:30:23.293Z,1192.50
2019-01-19T10:31:23.258Z,1186.88
2019-01-19T10:32:23.231Z,1181.25
2019-01-19T10:33:23.208Z,1175.63
2019-01-19T10:34:23.188Z,1158.75
2019-01-19T10:35:23.144Z,1153.13
2019-01-19T10:36:23.122Z,1141.88
2019-01-19T10:37:23.096Z,1141.88
2019-01-19T10:38:23.060Z,1147.50
2019-01-19T10:39:23.044Z,1136.25
2019-01-19T10:40:23.014Z,1136.25
2019-01-19T10:41:22.987Z,1125.00
2019-01-19T10:42:22.959Z,1125.00
2019-01-19T10:43:22.934Z,1125.00
2019-01-19T10:44:22.944Z,1113.75
2019-01-19T10:45:22.894Z,1108.13
2019-01-19T10:46:22.858Z,956.25
2019-01-19T10:47:22.832Z,787.50
2019-01-19T10:48:22.821Z,641.25
2019-01-19T10:49:22.799Z,534.38
2019-01-19T10:50:22.749Z,646.88
2019-01-19T10:51:22.716Z,855.00
2019-01-19T10:52:22.690Z,995.63
2019-01-19T10:53:22.686Z,978.75
2019-01-19T10:54:22.646Z,978.75
2019-01-19T10:55:22.616Z,945.00
2019-01-19T10:56:22.609Z,798.75
2019-01-19T10:57:22.552Z,787.50
2019-01-19T10:58:22.546Z,888.75
2019-01-19T10:59:22.505Z,905.63
2019-01-19T11:00:22.487Z,894.38
2019-01-19T11:01:22.459Z,911.25
2019-01-19T11:02:22.423Z,967.50
2019-01-19T11:03:22.404Z,950.63
2019-01-19T11:04:22.369Z,933.75
2019-01-19T11:05:22.332Z,945.00
2019-01-19T11:06:22.320Z,888.75
2019-01-19T11:07:22.284Z,894.38
2019-01-19T11:08:22.279Z,933.75
2019-01-19T11:09:22.229Z,888.75
2019-01-19T11:10:22.204Z,798.75
2019-01-19T11:11:22.208Z,815.63
2019-01-19T11:12:22.160Z,838.13
2019-01-19T11:13:22.120Z,765.00
2019-01-19T11:14:22.120Z,838.13
2019-01-19T11:15:22.077Z,888.75
2019-01-19T11:16:22.054Z,900.00
2019-01-19T11:17:22.042Z,922.50
2019-01-19T11:18:22.016Z,933.75
2019-01-19T11:19:21.970Z,945.00
2019-01-19T11:20:21.969Z,956.25
2019-01-19T11:21:21.920Z,961.88
2019-01-19T11:22:21.887Z,961.88
2019-01-19T11:23:21.866Z,973.13
2019-01-19T11:24:21.845Z,967.50
2019-01-19T11:25:21.802Z,956.25
2019-01-19T11:26:21.781Z,967.50
2019-01-19T11:27:21.756Z,978.75
2019-01-19T11:28:21.740Z,967.50
2019-01-19T11:29:21.715Z,967.50
2019-01-19T11:30:21.673Z,956.25
2019-01-19T11:31:21.646Z,956.25
2019-01-19T11:32:21.627Z,956.25
2019-01-19T11:33:21.632Z,950.63
2019-01-19T11:34:21.600Z,945.00
2019-01-19T11:35:21.552Z,933.75
2019-01-19T11:36:21.563Z,928.13
2019-01-19T11:37:21.502Z,894.38
2019-01-19T11:38:21.476Z,877.50
2019-01-19T11:39:21.466Z,843.75
2019-01-19T11:40:21.427Z,793.13
2019-01-19T11:41:21.392Z,826.88
2019-01-19T11:42:21.366Z,849.38
2019-01-19T11:43:21.334Z,821.25
2019-01-19T11:44:21.307Z,804.38
2019-01-19T11:45:21.311Z,832.50
2019-01-19T11:46:21.264Z,849.38
2019-01-19T11:47:21.232Z,866.25
2019-01-19T11:48:21.211Z,866.25
2019-01-19T11:49:21.182Z,871.88
2019-01-19T11:50:22.639Z,883.13
2019-01-19T11:51:21.141Z,866.25
2019-01-19T11:52:21.172Z,860.63
2019-01-19T11:53:21.093Z,866.25
2019-01-19T11:54:21.057Z,849.38
2019-01-19T11:55:21.037Z,821.25
2019-01-19T11:56:21.031Z,776.25
2019-01-19T11:57:20.979Z,725.63
2019-01-19T11:58:20.958Z,669.38
2019-01-19T11:59:20.936Z,669.38
2019-01-19T12:00:20.913Z,585.00
2019-01-19T12:01:20.879Z,523.13
2019-01-19T12:02:20.858Z,517.50
2019-01-19T12:03:20.824Z,528.75
2019-01-19T12:04:20.792Z,601.88
2019-01-19T12:05:20.808Z,663.75
2019-01-19T12:06:20.748Z,691.88
2019-01-19T12:07:20.749Z,675.00
2019-01-19T12:08:21.053Z,691.88
2019-01-19T12:09:20.723Z,720.00
2019-01-19T12:10:20.708Z,658.13
2019-01-19T12:11:20.655Z,663.75
2019-01-19T12:12:20.657Z,703.13
2019-01-19T12:13:20.612Z,703.13
2019-01-19T12:14:20.595Z,697.50
2019-01-19T12:15:20.535Z,691.88
2019-01-19T12:16:20.518Z,675.00
2019-01-19T12:17:20.468Z,663.75
2019-01-19T12:18:20.438Z,686.25
2019-01-19T12:19:20.435Z,703.13
2019-01-19T12:20:20.371Z,691.88
2019-01-19T12:21:20.352Z,703.13
2019-01-19T12:22:20.365Z,686.25
2019-01-19T12:23:20.343Z,680.63
2019-01-19T12:24:20.465Z,663.75
2019-01-19T12:25:20.323Z,663.75
2019-01-19T12:26:20.272Z,675.00
2019-01-19T12:27:20.188Z,680.63
2019-01-19T12:28:20.172Z,669.38
2019-01-19T12:29:20.137Z,652.50
2019-01-19T12:30:20.104Z,646.88
2019-01-19T12:31:20.288Z,652.50
2019-01-19T12:32:20.059Z,630.00
2019-01-19T12:33:20.030Z,613.13
2019-01-19T12:34:20.023Z,607.50
2019-01-19T12:35:19.996Z,596.25
2019-01-19T12:36:19.946Z,585.00
2019-01-19T12:37:19.920Z,562.50
2019-01-19T12:38:26.599Z,540.00
2019-01-19T12:39:19.870Z,534.38
2019-01-19T12:40:19.845Z,534.38
2019-01-19T12:41:19.889Z,534.38
2019-01-19T12:42:19.784Z,511.88
2019-01-19T12:43:19.803Z,489.38
2019-01-19T12:44:19.735Z,489.38
2019-01-19T12:45:19.779Z,489.38
2019-01-19T12:46:19.692Z,500.63
2019-01-19T12:47:19.676Z,523.13
2019-01-19T12:48:19.634Z,528.75
2019-01-19T12:49:19.596Z,500.63
2019-01-19T12:50:19.608Z,472.50
2019-01-19T12:51:19.542Z,466.88
2019-01-19T12:52:19.515Z,450.00
2019-01-19T12:53:19.488Z,461.25
2019-01-19T12:54:19.461Z,450.00
2019-01-19T12:55:19.438Z,450.00
2019-01-19T12:56:19.470Z,466.88
2019-01-19T12:57:19.397Z,433.13
2019-01-19T12:58:19.377Z,399.38
2019-01-19T12:59:19.331Z,483.75
2019-01-19T13:00:19.368Z,545.63
2019-01-19T13:01:19.270Z,556.88
2019-01-19T13:02:19.235Z,540.00